createdAt,value
2023-01-28T00:02:08.254Z,102207.91
2023-01-28T00:04:35.943Z,102206.69
2023-01-28T00:07:03.642Z,102210.09
2023-01-28T00:09:31.296Z,102217.06
2023-01-28T00:11:58.955Z,102217.94
2023-01-28T00:14:26.664Z,102211.19
2023-01-28T00:16:54.291Z,102217.53
2023-01-28T00:19:23.406Z,102208.00
2023-01-28T00:21:51.081Z,102204.81
2023-01-28T00:24:18.970Z,102205.66
2023-01-28T00:26:47.841Z,102197.31
2023-01-28T00:29:18.459Z,102193.22
2023-01-28T00:31:46.208Z,102198.19
2023-01-28T00:34:14.083Z,102209.22
2023-01-28T00:36:44.584Z,102205.25
2023-01-28T00:39:15.355Z,102212.84
2023-01-28T00:41:43.337Z,102208.16
2023-01-28T00:44:11.626Z,102211.13
2023-01-28T00:46:42.186Z,102208.22
2023-01-28T00:49:11.662Z,102199.47
2023-01-28T00:51:39.679Z,102204.16
2023-01-28T00:54:08.775Z,102202.34
2023-01-28T00:56:39.134Z,102205.97
2023-01-28T00:59:07.384Z,102201.50
2023-01-28T01:01:35.627Z,102203.75
2023-01-28T01:04:03.707Z,102204.31
2023-01-28T01:06:33.840Z,102204.94
2023-01-28T01:09:01.618Z,102199.13
2023-01-28T01:11:30.714Z,102200.97
2023-01-28T01:14:01.039Z,102204.47
2023-01-28T01:16:32.111Z,102199.38
2023-01-28T01:19:01.241Z,102197.78
2023-01-28T01:21:30.347Z,102196.94
2023-01-28T01:23:58.266Z,102199.72
2023-01-28T01:26:27.627Z,102195.50
2023-01-28T01:28:56.767Z,102203.22
2023-01-28T01:31:29.072Z,102198.28
2023-01-28T01:33:57.805Z,102200.31
2023-01-28T01:36:25.864Z,102201.28
2023-01-28T01:38:57.214Z,102209.94
2023-01-28T01:41:28.447Z,102211.03
2023-01-28T01:43:59.421Z,102213.28
2023-01-28T01:46:35.750Z,102214.34
2023-01-28T01:49:14.358Z,102214.69
2023-01-28T01:51:42.653Z,102213.50
2023-01-28T01:54:11.551Z,102217.78
2023-01-28T01:56:43.378Z,102209.66
2023-01-28T01:59:15.540Z,102217.78
2023-01-28T02:01:45.586Z,102222.72
2023-01-28T02:04:20.251Z,102219.16
2023-01-28T02:06:48.966Z,102224.97
2023-01-28T02:09:25.345Z,102219.75
2023-01-28T02:11:59.548Z,102219.63
2023-01-28T02:14:32.101Z,102226.47
2023-01-28T02:17:01.357Z,102225.81
2023-01-28T02:19:35.392Z,102219.75
2023-01-28T02:22:14.654Z,102232.34
2023-01-28T02:25:18.763Z,102219.94
2023-01-28T02:28:02.453Z,102236.63
2023-01-28T02:30:34.650Z,102229.97
2023-01-28T02:33:09.409Z,102227.84
2023-01-28T02:35:44.788Z,102232.97
2023-01-28T02:38:17.528Z,102222.72
2023-01-28T02:41:05.719Z,102230.09
2023-01-28T02:43:37.180Z,102221.31
2023-01-28T02:46:36.780Z,102225.50
2023-01-28T02:49:07.502Z,102212.44
2023-01-28T02:51:47.434Z,102218.22
2023-01-28T02:54:24.096Z,102209.47
2023-01-28T02:57:01.694Z,102215.53
2023-01-28T02:59:43.813Z,102218.66
2023-01-28T03:02:21.747Z,102212.34
2023-01-28T03:04:55.671Z,102212.03
2023-01-28T03:07:26.945Z,102209.53
2023-01-28T03:10:01.122Z,102208.69
2023-01-28T03:12:48.081Z,102212.78
2023-01-28T03:15:38.718Z,102208.06
2023-01-28T03:18:29.190Z,102209.88
2023-01-28T03:21:20.980Z,102206.69
2023-01-28T03:24:22.666Z,102205.91
2023-01-28T03:27:16.376Z,102200.25
2023-01-28T03:30:03.623Z,102193.31
2023-01-28T03:32:51.496Z,102187.13
2023-01-28T03:35:41.293Z,102192.88
2023-01-28T03:38:22.891Z,102200.44
2023-01-28T03:40:52.361Z,102197.25
2023-01-28T03:43:20.178Z,102200.25
2023-01-28T03:45:52.487Z,102203.06
2023-01-28T03:48:24.678Z,102211.19
2023-01-28T03:50:53.254Z,102206.69
2023-01-28T03:53:21.064Z,102207.88
2023-01-28T03:55:50.332Z,102216.13
2023-01-28T03:58:19.861Z,102208.41
2023-01-28T04:00:47.718Z,102209.25
2023-01-28T04:03:17.933Z,102216.72
2023-01-28T04:05:58.270Z,102215.34
2023-01-28T04:08:26.289Z,102220.59
2023-01-28T04:10:54.095Z,102218.88
2023-01-28T04:13:22.345Z,102222.94
2023-01-28T04:15:50.607Z,102224.84
2023-01-28T04:18:19.541Z,102233.66
2023-01-28T04:20:49.862Z,102229.47
2023-01-28T04:23:17.482Z,102241.84
2023-01-28T04:25:45.124Z,102235.13
2023-01-28T04:28:12.914Z,102239.28
2023-01-28T04:30:42.280Z,102233.75
2023-01-28T04:33:10.690Z,102243.69
2023-01-28T04:35:38.899Z,102246.25
2023-01-28T04:38:08.303Z,102249.97
2023-01-28T04:40:36.230Z,102245.63
2023-01-28T04:43:04.026Z,102246.34
2023-01-28T04:45:31.927Z,102250.53
2023-01-28T04:48:00.114Z,102244.44
2023-01-28T04:50:27.827Z,102252.25
2023-01-28T04:52:55.575Z,102244.75
2023-01-28T04:55:25.772Z,102248.19
2023-01-28T04:57:53.561Z,102247.22
2023-01-28T05:00:21.650Z,102252.03
2023-01-28T05:02:49.662Z,102255.44
2023-01-28T05:05:20.482Z,102252.34
2023-01-28T05:07:52.698Z,102251.06
2023-01-28T05:10:20.917Z,102252.25
2023-01-28T05:12:52.765Z,102250.41
2023-01-28T05:15:21.670Z,102255.13
2023-01-28T05:17:49.530Z,102255.25
2023-01-28T05:20:17.557Z,102257.03
2023-01-28T05:22:45.437Z,102246.25
2023-01-28T05:25:13.467Z,102249.03
2023-01-28T05:27:41.392Z,102248.06
2023-01-28T05:30:11.864Z,102247.31
2023-01-28T05:32:39.724Z,102249.78
2023-01-28T05:35:08.109Z,102237.38
2023-01-28T05:37:35.819Z,102241.00
2023-01-28T05:40:03.721Z,102238.34
2023-01-28T05:42:32.649Z,102239.91
2023-01-28T05:45:01.010Z,102234.06
2023-01-28T05:47:33.555Z,102235.56
2023-01-28T05:50:03.684Z,102240.25
2023-01-28T05:52:34.209Z,102247.09
2023-01-28T05:55:02.275Z,102243.13
2023-01-28T05:57:30.585Z,102246.78
2023-01-28T05:59:58.349Z,102248.81
2023-01-28T06:02:26.089Z,102243.56
2023-01-28T06:04:56.634Z,102246.25
2023-01-28T06:07:25.026Z,102251.69
2023-01-28T06:09:52.723Z,102246.00
2023-01-28T06:12:20.387Z,102246.84
2023-01-28T06:14:48.389Z,102251.75
2023-01-28T06:17:16.264Z,102244.69
2023-01-28T06:19:44.112Z,102243.94
2023-01-28T06:22:13.387Z,102249.53
2023-01-28T06:24:43.822Z,102242.06
2023-01-28T06:27:11.535Z,102246.88
2023-01-28T06:29:42.271Z,102244.63
2023-01-28T06:32:10.203Z,102253.91
2023-01-28T06:34:39.119Z,102255.97
2023-01-28T06:37:07.139Z,102255.53
2023-01-28T06:39:36.186Z,102254.88
2023-01-28T06:42:04.105Z,102249.88
2023-01-28T06:44:31.895Z,102248.59
2023-01-28T06:46:59.712Z,102249.25
2023-01-28T06:49:27.831Z,102261.53
2023-01-28T06:51:56.558Z,102260.03
2023-01-28T06:54:26.771Z,102249.88
2023-01-28T06:56:55.718Z,102249.78
2023-01-28T06:59:23.403Z,102260.69
2023-01-28T07:01:54.111Z,102262.38
2023-01-28T07:04:21.979Z,102262.28
2023-01-28T07:06:49.725Z,102259.94
2023-01-28T07:09:17.620Z,102256.38
2023-01-28T07:11:45.273Z,102260.16
2023-01-28T07:14:14.335Z,102250.84
2023-01-28T07:16:42.423Z,102249.78
2023-01-28T07:19:10.668Z,102251.25
2023-01-28T07:21:38.449Z,102254.81
2023-01-28T07:24:08.374Z,102252.88
2023-01-28T07:26:36.152Z,102262.38
2023-01-28T07:29:04.219Z,102268.91
2023-01-28T07:31:33.352Z,102268.47
2023-01-28T07:34:08.585Z,102261.22
2023-01-28T07:36:36.812Z,102263.97
2023-01-28T07:39:04.923Z,102267.00
2023-01-28T07:41:32.727Z,102267.88
2023-01-28T07:44:00.535Z,102269.13
2023-01-28T07:46:30.726Z,102269.91
2023-01-28T07:48:59.857Z,102267.00
2023-01-28T07:51:27.701Z,102277.03
2023-01-28T07:53:55.380Z,102279.16
2023-01-28T07:56:26.121Z,102281.84
2023-01-28T07:58:55.046Z,102276.50
2023-01-28T08:01:22.827Z,102283.44
2023-01-28T08:03:54.335Z,102286.22
2023-01-28T08:06:23.475Z,102280.63
2023-01-28T08:08:52.448Z,102275.63
2023-01-28T08:11:20.798Z,102286.19
2023-01-28T08:13:51.862Z,102282.97
2023-01-28T08:16:19.828Z,102294.63
2023-01-28T08:18:50.734Z,102292.59
2023-01-28T08:21:19.680Z,102305.00
2023-01-28T08:24:03.279Z,102308.22
2023-01-28T08:26:31.290Z,102318.38
2023-01-28T08:28:59.526Z,102311.53
2023-01-28T08:31:31.429Z,102315.91
2023-01-28T08:34:01.357Z,102320.38
2023-01-28T08:36:30.112Z,102312.91
2023-01-28T08:38:59.425Z,102322.66
2023-01-28T08:41:28.149Z,102324.06
2023-01-28T08:43:55.801Z,102327.69
2023-01-28T08:46:23.575Z,102334.50
2023-01-28T08:48:52.592Z,102341.16
2023-01-28T08:51:20.302Z,102339.03
2023-01-28T08:53:47.966Z,102341.69
2023-01-28T08:56:20.011Z,102344.91
2023-01-28T08:58:47.726Z,102352.16
2023-01-28T09:01:15.717Z,102347.72
2023-01-28T09:03:43.534Z,102359.28
2023-01-28T09:06:11.560Z,102347.56
2023-01-28T09:08:39.321Z,102358.06
2023-01-28T09:11:07.079Z,102355.94
2023-01-28T09:13:36.377Z,102370.03
2023-01-28T09:16:06.234Z,102369.69
2023-01-28T09:18:33.911Z,102379.50
2023-01-28T09:21:01.667Z,102377.16
2023-01-28T09:23:29.293Z,102380.88
2023-01-28T09:26:01.569Z,102381.63
2023-01-28T09:28:29.852Z,102388.78
2023-01-28T09:31:04.629Z,102386.00
2023-01-28T09:33:34.501Z,102395.34
2023-01-28T09:36:05.577Z,102398.53
2023-01-28T09:38:35.010Z,102400.53
2023-01-28T09:41:04.674Z,102399.25
2023-01-28T09:43:48.655Z,102396.84
2023-01-28T09:46:19.027Z,102386.94
2023-01-28T09:48:51.877Z,102397.53
2023-01-28T09:51:32.339Z,102398.38
2023-01-28T09:54:05.519Z,102403.59
2023-01-28T09:56:39.490Z,102392.19
2023-01-28T09:59:18.337Z,102395.69
2023-01-28T10:01:53.891Z,102402.19
2023-01-28T10:04:34.377Z,102405.81
2023-01-28T10:07:20.042Z,102407.41
2023-01-28T10:09:53.655Z,102405.00
2023-01-28T10:12:35.265Z,102398.97
2023-01-28T10:15:24.683Z,102392.91
2023-01-28T10:18:10.813Z,102400.31
2023-01-28T10:20:48.513Z,102393.13
2023-01-28T10:23:30.902Z,102392.38
2023-01-28T10:26:05.834Z,102384.06
2023-01-28T10:28:38.415Z,102398.25
2023-01-28T10:31:15.223Z,102394.25
2023-01-28T10:33:43.589Z,102381.63
2023-01-28T10:36:11.675Z,102371.91
2023-01-28T10:38:41.026Z,102385.38
2023-01-28T10:41:13.751Z,102391.69
2023-01-28T10:43:43.377Z,102396.25
2023-01-28T10:46:15.417Z,102393.09
2023-01-28T10:48:51.658Z,102387.75
2023-01-28T10:51:20.845Z,102390.66
2023-01-28T10:53:52.770Z,102394.19
2023-01-28T10:56:28.020Z,102400.53
2023-01-28T10:59:01.685Z,102399.41
2023-01-28T11:01:45.234Z,102401.69
2023-01-28T11:04:21.028Z,102402.25
2023-01-28T11:06:56.614Z,102399.25
2023-01-28T11:09:32.306Z,102392.56
2023-01-28T11:12:11.154Z,102385.13
2023-01-28T11:14:39.051Z,102383.25
2023-01-28T11:17:17.118Z,102378.00
2023-01-28T11:19:45.055Z,102387.75
2023-01-28T11:22:27.979Z,102385.66
2023-01-28T11:25:00.381Z,102381.78
2023-01-28T11:27:31.601Z,102388.94
2023-01-28T11:30:03.462Z,102386.28
2023-01-28T11:32:32.004Z,102393.13
2023-01-28T11:35:00.583Z,102377.09
2023-01-28T11:37:29.580Z,102372.75
2023-01-28T11:40:20.045Z,102369.25
2023-01-28T11:42:52.616Z,102371.66
2023-01-28T11:45:25.467Z,102358.38
2023-01-28T11:48:04.110Z,102354.66
2023-01-28T11:50:44.743Z,102343.25
2023-01-28T11:53:26.967Z,102345.25
2023-01-28T11:56:07.611Z,102339.06
2023-01-28T11:58:47.489Z,102338.63
2023-01-28T12:01:22.496Z,102325.41
2023-01-28T12:04:11.512Z,102327.97
2023-01-28T12:06:58.342Z,102331.94
2023-01-28T12:09:35.649Z,102333.13
2023-01-28T12:12:34.493Z,102325.94
2023-01-28T12:15:26.282Z,102317.69
2023-01-28T12:18:11.356Z,102313.94
2023-01-28T12:20:47.772Z,102290.94
2023-01-28T12:23:36.888Z,102281.31
2023-01-28T12:26:10.412Z,102262.84
2023-01-28T12:28:53.164Z,102247.75
2023-01-28T12:31:39.669Z,102237.22
2023-01-28T12:34:32.386Z,102223.16
2023-01-28T12:37:11.878Z,102223.00
2023-01-28T12:39:53.029Z,102212.44
2023-01-28T12:42:28.651Z,102208.19
2023-01-28T12:45:08.424Z,102206.94
2023-01-28T12:47:41.459Z,102204.16
2023-01-28T12:50:16.099Z,102195.03
2023-01-28T12:52:48.779Z,102203.56
2023-01-28T12:55:23.623Z,102208.91
2023-01-28T12:57:53.690Z,102221.16
2023-01-28T13:00:29.666Z,102231.88
2023-01-28T13:03:16.413Z,102228.66
2023-01-28T13:05:51.495Z,102213.03
2023-01-28T13:08:25.795Z,102201.09
2023-01-28T13:10:57.524Z,102203.47
2023-01-28T13:13:34.871Z,102221.84
2023-01-28T13:16:05.624Z,102217.25
2023-01-28T13:18:44.127Z,102224.66
2023-01-28T13:21:17.081Z,102234.78
2023-01-28T13:23:48.188Z,102227.00
2023-01-28T13:26:35.435Z,102243.78
2023-01-28T13:29:20.500Z,102247.72
2023-01-28T13:31:56.981Z,102272.34
2023-01-28T13:34:36.486Z,102262.41
2023-01-28T13:37:20.683Z,102258.88
2023-01-28T13:39:57.552Z,102268.50
2023-01-28T13:42:29.793Z,102261.75
2023-01-28T13:45:10.173Z,102270.56
2023-01-28T13:47:47.371Z,102281.44
2023-01-28T13:50:19.640Z,102273.22
2023-01-28T13:52:53.526Z,102258.34
2023-01-28T13:55:41.764Z,102267.88
2023-01-28T13:58:41.579Z,102263.25
2023-01-28T14:01:40.357Z,102270.56
2023-01-28T14:04:43.157Z,102258.56
2023-01-28T14:07:41.489Z,102247.66
2023-01-28T14:10:32.194Z,102245.53
2023-01-28T14:13:33.387Z,102223.69
2023-01-28T14:16:24.265Z,102207.34
2023-01-28T14:19:06.240Z,102207.53
2023-01-28T14:21:40.833Z,102213.84
2023-01-28T14:24:32.797Z,102207.41
2023-01-28T14:27:15.556Z,102202.31
2023-01-28T14:29:55.636Z,102209.47
2023-01-28T14:32:30.994Z,102218.44
2023-01-28T14:35:08.461Z,102238.97
2023-01-28T14:37:40.153Z,102224.88
2023-01-28T14:40:14.413Z,102226.78
2023-01-28T14:42:47.317Z,102242.41
2023-01-28T14:45:30.651Z,102239.09
2023-01-28T14:48:18.339Z,102235.34
2023-01-28T14:51:12.005Z,102234.16
2023-01-28T14:54:06.035Z,102236.94
2023-01-28T14:56:49.986Z,102239.81
2023-01-28T14:59:23.289Z,102244.66
2023-01-28T15:01:57.899Z,102238.78
2023-01-28T15:04:31.406Z,102237.69
2023-01-28T15:07:19.127Z,102249.34
2023-01-28T15:09:49.738Z,102252.78
2023-01-28T15:12:20.914Z,102257.56
2023-01-28T15:14:50.650Z,102260.31
2023-01-28T15:17:26.483Z,102251.91
2023-01-28T15:19:56.925Z,102260.78
2023-01-28T15:22:29.370Z,102261.22
2023-01-28T15:25:01.214Z,102271.47
2023-01-28T15:27:32.671Z,102278.09
2023-01-28T15:30:03.203Z,102281.19
2023-01-28T15:32:33.189Z,102275.94
2023-01-28T15:35:02.861Z,102271.47
2023-01-28T15:37:31.999Z,102269.94
2023-01-28T15:40:14.215Z,102261.19
2023-01-28T15:42:50.810Z,102259.69
2023-01-28T15:45:34.649Z,102261.81
2023-01-28T15:48:08.955Z,102264.16
2023-01-28T15:50:38.317Z,102261.94
2023-01-28T15:53:16.800Z,102268.88
2023-01-28T15:55:58.127Z,102264.97
2023-01-28T15:58:31.706Z,102280.22
2023-01-28T16:01:21.535Z,102287.03
2023-01-28T16:04:03.225Z,102299.63
2023-01-28T16:06:38.960Z,102296.94
2023-01-28T16:09:16.966Z,102302.00
2023-01-28T16:11:59.655Z,102293.13
2023-01-28T16:17:20.697Z,102308.03
2023-01-28T16:20:06.685Z,102301.50
2023-01-28T16:22:39.083Z,102314.38
2023-01-28T16:25:29.674Z,102314.81
2023-01-28T16:28:23.436Z,102326.44
2023-01-28T16:30:54.391Z,102325.72
2023-01-28T16:33:23.421Z,102310.03
2023-01-28T16:36:06.638Z,102297.72
2023-01-28T16:38:55.853Z,102285.34
2023-01-28T16:41:29.191Z,102273.78
2023-01-28T16:44:13.807Z,102257.97
2023-01-28T16:46:48.283Z,102242.69
2023-01-28T16:49:16.307Z,102248.56
2023-01-28T16:51:46.623Z,102258.97
2023-01-28T16:54:16.931Z,102262.38
2023-01-28T16:56:47.240Z,102276.91
2023-01-28T17:02:21.770Z,102260.66
2023-01-28T17:04:50.292Z,102270.16
2023-01-28T17:07:19.924Z,102273.78
2023-01-28T17:09:49.295Z,102273.25
2023-01-28T17:12:17.358Z,102273.25
2023-01-28T17:14:46.814Z,102278.41
2023-01-28T17:17:15.245Z,102287.91
2023-01-28T17:19:44.101Z,102285.91
2023-01-28T17:22:15.310Z,102274.88
2023-01-28T17:24:51.132Z,102273.50
2023-01-28T17:27:19.302Z,102256.41
2023-01-28T17:29:49.713Z,102276.81
2023-01-28T17:32:19.968Z,102296.16
2023-01-28T17:34:48.608Z,102297.56
2023-01-28T17:37:24.250Z,102294.22
2023-01-28T17:40:17.472Z,102292.38
2023-01-28T17:42:59.089Z,102296.50
2023-01-28T17:45:44.722Z,102295.16
2023-01-28T17:48:20.053Z,102285.94
2023-01-28T17:50:54.681Z,102280.81
2023-01-28T17:53:23.976Z,102281.53
2023-01-28T17:55:56.650Z,102272.56
2023-01-28T17:58:31.221Z,102275.47
2023-01-28T18:01:07.403Z,102291.72
2023-01-28T18:06:26.380Z,102291.94
2023-01-28T18:11:53.640Z,102297.91
2023-01-28T18:17:48.614Z,102303.69
2023-01-28T18:20:21.467Z,102305.84
2023-01-28T18:22:54.049Z,102311.41
2023-01-28T18:25:23.322Z,102316.97
2023-01-28T18:27:52.388Z,102322.88
2023-01-28T18:30:35.401Z,102327.50
2023-01-28T18:33:05.757Z,102317.88
2023-01-28T18:35:33.767Z,102305.00
2023-01-28T18:38:02.642Z,102302.69
2023-01-28T18:40:30.988Z,102311.13
2023-01-28T18:42:58.795Z,102304.06
2023-01-28T18:45:26.831Z,102306.44
2023-01-28T18:47:54.767Z,102311.59
2023-01-28T18:50:26.579Z,102308.16
2023-01-28T18:53:16.334Z,102310.25
2023-01-28T18:55:46.158Z,102310.25
2023-01-28T18:58:17.117Z,102308.47
2023-01-28T19:01:33.408Z,102312.84
2023-01-28T19:04:03.950Z,102316.88
2023-01-28T19:06:38.553Z,102326.81
2023-01-28T19:09:16.065Z,102326.72
2023-01-28T19:11:48.519Z,102326.28
2023-01-28T19:14:18.426Z,102330.78
2023-01-28T19:16:59.538Z,102341.34
2023-01-28T19:19:45.991Z,102341.84
2023-01-28T19:22:22.799Z,102342.25
2023-01-28T19:24:58.227Z,102337.94
2023-01-28T19:27:28.645Z,102339.41
2023-01-28T19:29:59.856Z,102336.66
2023-01-28T19:32:31.145Z,102336.38
2023-01-28T19:37:48.604Z,102319.59
2023-01-28T19:40:51.967Z,102324.19
2023-01-28T19:43:22.655Z,102319.03
2023-01-28T19:45:57.778Z,102319.50
2023-01-28T19:48:47.701Z,102311.59
2023-01-28T19:51:24.022Z,102307.50
2023-01-28T19:53:57.186Z,102303.97
2023-01-28T19:56:30.208Z,102300.81
2023-01-28T19:59:03.974Z,102301.91
2023-01-28T20:01:36.372Z,102303.59
2023-01-28T20:04:10.945Z,102285.56
2023-01-28T20:06:45.727Z,102288.56
2023-01-28T20:09:49.465Z,102285.97
2023-01-28T20:15:15.096Z,102272.06
2023-01-28T20:17:58.269Z,102286.47
2023-01-28T20:20:32.991Z,102282.28
2023-01-28T20:23:06.277Z,102278.97
2023-01-28T20:25:46.337Z,102286.56
2023-01-28T20:28:17.184Z,102280.16
2023-01-28T20:30:52.045Z,102290.25
2023-01-28T20:33:28.769Z,102280.91
2023-01-28T20:36:02.353Z,102280.91
2023-01-28T20:38:36.492Z,102284.16
2023-01-28T20:44:22.490Z,102284.06
2023-01-28T20:47:02.588Z,102279.56
2023-01-28T20:49:33.682Z,102288.91
2023-01-28T20:52:08.725Z,102281.53
2023-01-28T20:54:57.868Z,102299.03
2023-01-28T21:00:53.354Z,102293.50
2023-01-28T21:12:35.472Z,102270.78
2023-01-28T21:15:11.647Z,102270.19
2023-01-28T21:17:58.177Z,102264.28
2023-01-28T21:20:32.063Z,102258.59
2023-01-28T21:26:25.328Z,102250.75
2023-01-28T21:32:01.507Z,102243.91
2023-01-28T21:34:40.925Z,102243.72
2023-01-28T21:37:15.339Z,102236.63
2023-01-28T21:39:45.956Z,102235.56
2023-01-28T21:42:15.886Z,102240.59
2023-01-28T21:44:48.967Z,102245.84
2023-01-28T21:47:43.110Z,102250.22
2023-01-28T21:50:29.724Z,102254.00
2023-01-28T21:56:00.374Z,102242.38
2023-01-28T21:58:42.337Z,102234.66
2023-01-28T22:01:12.283Z,102242.03
2023-01-28T22:03:46.375Z,102240.16
2023-01-28T22:06:20.579Z,102249.22
2023-01-28T22:08:52.857Z,102241.75
2023-01-28T22:11:39.547Z,102230.13
2023-01-28T22:14:10.740Z,102256.59
2023-01-28T22:16:47.780Z,102265.19
2023-01-28T22:20:01.841Z,102257.84
2023-01-28T22:22:55.512Z,102257.75
2023-01-28T22:25:56.089Z,102248.38
2023-01-28T22:28:26.625Z,102246.00
2023-01-28T22:30:57.175Z,102241.50
2023-01-28T22:33:29.372Z,102238.19
2023-01-28T22:39:01.142Z,102235.63
2023-01-28T22:41:36.959Z,102240.41
2023-01-28T22:44:08.998Z,102241.72
2023-01-28T22:46:56.005Z,102241.06
2023-01-28T22:52:41.075Z,102230.06
2023-01-28T22:55:14.664Z,102226.22
2023-01-28T22:57:56.639Z,102224.06
2023-01-28T23:00:30.364Z,102222.78
2023-01-28T23:02:58.716Z,102227.50
2023-01-28T23:05:28.050Z,102227.81
2023-01-28T23:08:11.370Z,102232.97
2023-01-28T23:10:53.144Z,102243.22
2023-01-28T23:16:32.169Z,102236.81
2023-01-28T23:19:20.378Z,102229.34
2023-01-28T23:22:08.828Z,102237.06
2023-01-28T23:24:38.428Z,102234.16
2023-01-28T23:27:11.200Z,102232.03
2023-01-28T23:29:40.608Z,102228.59
2023-01-28T23:32:11.693Z,102224.22
2023-01-28T23:34:54.168Z,102211.81
2023-01-28T23:37:22.391Z,102220.81
2023-01-28T23:39:57.554Z,102221.75
2023-01-28T23:42:31.568Z,102217.41
2023-01-28T23:44:59.571Z,102214.72
2023-01-28T23:47:43.137Z,102208.50
2023-01-28T23:53:13.415Z,102199.94
2023-01-28T23:55:57.651Z,102193.09
2023-01-28T23:58:42.768Z,102193.00
